createdAt,value
2023-03-07T00:01:34.630Z,4.24
2023-03-07T00:05:37.806Z,4.21
2023-03-07T00:09:40.801Z,4.20
2023-03-07T00:13:45.444Z,4.19
2023-03-07T00:17:48.434Z,4.18
2023-03-07T00:21:51.540Z,4.14
2023-03-07T00:26:02.124Z,4.11
2023-03-07T00:30:07.689Z,4.07
2023-03-07T00:34:10.654Z,4.03
2023-03-07T00:38:13.752Z,4.03
2023-03-07T00:42:17.413Z,3.99
2023-03-07T00:46:24.498Z,3.99
2023-03-07T00:50:27.481Z,3.99
2023-03-07T00:54:30.903Z,3.94
2023-03-07T00:58:36.104Z,3.86
2023-03-07T01:02:40.820Z,3.85
2023-03-07T01:06:43.833Z,3.83
2023-03-07T01:10:48.678Z,3.79
2023-03-07T01:14:52.566Z,3.74
2023-03-07T01:18:58.820Z,3.69
2023-03-07T01:23:03.894Z,3.62
2023-03-07T01:27:07.755Z,3.55
2023-03-07T01:31:10.837Z,3.51
2023-03-07T01:35:16.834Z,3.51
2023-03-07T01:39:19.816Z,3.48
2023-03-07T01:43:35.289Z,3.45
2023-03-07T01:47:43.612Z,3.42
2023-03-07T01:51:52.260Z,3.37
2023-03-07T01:55:55.350Z,3.34
2023-03-07T02:00:05.769Z,3.31
2023-03-07T02:04:22.523Z,3.28
2023-03-07T02:12:48.165Z,3.24
2023-03-07T02:16:52.258Z,3.22
2023-03-07T02:21:01.719Z,3.19
2023-03-07T02:25:13.493Z,3.18
2023-03-07T02:29:18.065Z,3.16
2023-03-07T02:33:25.126Z,3.18
2023-03-07T02:37:38.219Z,3.18
2023-03-07T02:41:42.123Z,3.19
2023-03-07T02:45:55.729Z,3.20
2023-03-07T02:49:58.937Z,3.22
2023-03-07T02:54:02.734Z,3.24
2023-03-07T02:58:06.159Z,3.24
2023-03-07T03:02:10.592Z,3.23
2023-03-07T03:06:13.914Z,3.19
2023-03-07T03:10:17.259Z,3.18
2023-03-07T03:14:20.600Z,3.20
2023-03-07T03:18:25.489Z,3.21
2023-03-07T03:22:28.755Z,3.22
2023-03-07T03:26:31.988Z,3.23
2023-03-07T03:30:36.101Z,3.21
2023-03-07T03:34:41.910Z,3.19
2023-03-07T03:38:45.334Z,3.20
2023-03-07T03:42:48.433Z,3.19
2023-03-07T03:46:55.857Z,3.21
2023-03-07T03:51:06.120Z,3.21
2023-03-07T03:55:10.384Z,3.20
2023-03-07T03:59:13.474Z,3.19
2023-03-07T04:03:16.631Z,3.15
2023-03-07T04:07:22.223Z,3.11
2023-03-07T04:11:26.938Z,3.04
2023-03-07T04:15:30.145Z,3.02
2023-03-07T04:19:33.404Z,3.02
2023-03-07T04:23:38.457Z,3.02
2023-03-07T04:27:41.783Z,3.01
2023-03-07T04:31:45.029Z,3.00
2023-03-07T04:35:48.685Z,3.01
2023-03-07T04:39:53.180Z,3.04
2023-03-07T04:43:57.057Z,3.08
2023-03-07T04:48:01.351Z,3.13
2023-03-07T04:52:05.584Z,3.18
2023-03-07T04:56:11.549Z,3.22
2023-03-07T05:00:17.107Z,3.27
2023-03-07T05:04:20.709Z,3.30
2023-03-07T05:08:24.345Z,3.34
2023-03-07T05:12:29.216Z,3.38
2023-03-07T05:16:33.653Z,3.41
2023-03-07T05:20:36.866Z,3.43
2023-03-07T05:24:40.112Z,3.43
2023-03-07T05:28:44.736Z,3.42
2023-03-07T05:32:47.910Z,3.36
2023-03-07T05:36:51.802Z,3.26
2023-03-07T05:40:55.299Z,3.18
2023-03-07T05:44:59.798Z,3.14
2023-03-07T05:49:03.063Z,3.12
2023-03-07T05:53:06.535Z,3.04
2023-03-07T05:57:10.168Z,3.01
2023-03-07T06:01:14.894Z,2.96
2023-03-07T06:05:18.196Z,2.88
2023-03-07T06:09:22.356Z,2.85
2023-03-07T06:13:26.693Z,2.82
2023-03-07T06:17:31.160Z,2.82
2023-03-07T06:21:34.736Z,2.84
2023-03-07T06:25:38.329Z,2.85
2023-03-07T06:29:41.613Z,2.87
2023-03-07T06:33:47.669Z,2.93
2023-03-07T06:37:52.376Z,2.99
2023-03-07T06:41:55.494Z,3.04
2023-03-07T06:45:58.718Z,3.05
2023-03-07T06:50:09.103Z,3.07
2023-03-07T06:54:13.401Z,3.07
2023-03-07T06:58:16.902Z,3.07
2023-03-07T07:02:20.467Z,3.10
2023-03-07T07:06:25.405Z,3.15
2023-03-07T07:10:28.848Z,3.17
2023-03-07T07:14:32.394Z,3.21
2023-03-07T07:18:35.940Z,3.28
2023-03-07T07:22:43.368Z,3.37
2023-03-07T07:26:46.603Z,3.42
2023-03-07T07:30:49.652Z,3.46
2023-03-07T07:34:53.104Z,3.56
2023-03-07T07:38:57.840Z,3.66
2023-03-07T07:43:01.050Z,3.73
2023-03-07T07:47:20.026Z,3.82
2023-03-07T07:51:23.344Z,3.91
2023-03-07T07:55:28.536Z,3.97
2023-03-07T07:59:34.275Z,4.01
2023-03-07T08:03:38.404Z,4.12
2023-03-07T08:07:41.574Z,4.23
2023-03-07T08:11:46.500Z,4.33
2023-03-07T08:15:49.656Z,4.44
2023-03-07T08:19:52.732Z,4.59
2023-03-07T08:23:56.710Z,4.65
2023-03-07T08:28:03.486Z,4.75
2023-03-07T08:32:07.315Z,4.90
2023-03-07T08:36:10.741Z,5.02
2023-03-07T08:40:14.621Z,5.21
2023-03-07T08:44:19.032Z,5.27
2023-03-07T08:48:22.184Z,5.35
2023-03-07T08:52:25.236Z,5.43
2023-03-07T08:56:28.393Z,5.49
2023-03-07T09:00:32.948Z,5.56
2023-03-07T09:04:36.161Z,5.67
2023-03-07T09:08:39.167Z,5.78
2023-03-07T09:12:42.233Z,5.87
2023-03-07T09:16:46.587Z,5.96
2023-03-07T09:20:51.043Z,5.97
2023-03-07T09:24:54.055Z,6.02
2023-03-07T09:28:57.153Z,6.11
2023-03-07T09:33:01.577Z,6.16
2023-03-07T09:37:04.764Z,6.20
2023-03-07T09:41:27.642Z,6.24
2023-03-07T09:45:45.365Z,6.21
2023-03-07T09:49:55.358Z,6.31
2023-03-07T09:54:01.953Z,6.43
2023-03-07T09:58:10.942Z,6.57
2023-03-07T10:02:21.679Z,6.71
2023-03-07T10:06:31.521Z,6.90
2023-03-07T10:10:39.818Z,7.08
2023-03-07T10:14:56.108Z,7.29
2023-03-07T10:19:10.032Z,7.42
2023-03-07T10:23:39.144Z,7.66
2023-03-07T10:27:42.305Z,7.75
2023-03-07T10:31:50.014Z,7.92
2023-03-07T10:35:59.205Z,7.95
2023-03-07T10:40:05.061Z,7.94
2023-03-07T10:44:17.486Z,8.04
2023-03-07T10:48:23.558Z,8.15
2023-03-07T10:52:35.196Z,8.24
2023-03-07T10:56:39.650Z,8.33
2023-03-07T11:00:44.400Z,8.40
2023-03-07T11:04:48.436Z,8.47
2023-03-07T11:08:51.565Z,8.53
2023-03-07T11:12:57.389Z,8.54
2023-03-07T11:17:02.063Z,8.54
2023-03-07T11:21:05.486Z,8.62
2023-03-07T11:25:19.066Z,8.67
2023-03-07T11:29:24.900Z,8.70
2023-03-07T11:33:39.271Z,8.86
2023-03-07T11:37:58.793Z,9.04
2023-03-07T11:42:06.311Z,9.05
2023-03-07T11:46:17.654Z,9.12
2023-03-07T11:50:24.279Z,9.19
2023-03-07T11:54:35.585Z,9.23
2023-03-07T11:58:53.005Z,9.22
2023-03-07T12:03:15.076Z,9.20
2023-03-07T12:07:33.569Z,9.25
2023-03-07T12:11:52.141Z,9.34
2023-03-07T12:16:06.221Z,9.43
2023-03-07T12:20:27.192Z,9.51
2023-03-07T12:24:36.297Z,9.44
2023-03-07T12:28:46.557Z,9.45
2023-03-07T12:32:52.066Z,9.46
2023-03-07T12:37:00.737Z,9.44
2023-03-07T12:41:12.167Z,9.45
2023-03-07T12:45:19.944Z,9.46
2023-03-07T12:49:32.266Z,9.44
2023-03-07T12:53:47.770Z,9.45
2023-03-07T12:57:59.323Z,9.46
2023-03-07T13:02:05.559Z,9.47
2023-03-07T13:06:17.892Z,9.41
2023-03-07T13:10:24.521Z,9.36
2023-03-07T13:14:46.172Z,9.22
2023-03-07T13:18:49.135Z,9.18
2023-03-07T13:23:01.308Z,9.11
2023-03-07T13:27:15.244Z,8.97
2023-03-07T13:31:39.839Z,8.89
2023-03-07T13:35:55.763Z,8.86
2023-03-07T13:40:02.807Z,8.88
2023-03-07T13:44:29.017Z,8.87
2023-03-07T13:49:02.029Z,8.83
2023-03-07T13:53:12.767Z,8.81
2023-03-07T13:57:17.960Z,8.76
2023-03-07T14:01:25.542Z,8.76
2023-03-07T14:05:30.062Z,8.69
2023-03-07T14:09:41.928Z,8.64
2023-03-07T14:14:20.562Z,8.51
2023-03-07T14:18:37.432Z,8.35
2023-03-07T14:22:52.466Z,8.20
2023-03-07T14:26:58.803Z,8.05
2023-03-07T14:31:05.528Z,7.87
2023-03-07T14:35:15.233Z,7.69
2023-03-07T14:39:18.654Z,7.53
2023-03-07T14:43:37.685Z,7.36
2023-03-07T14:48:00.246Z,7.18
2023-03-07T14:52:05.617Z,7.07
2023-03-07T14:56:09.820Z,6.95
2023-03-07T15:00:16.741Z,6.88
2023-03-07T15:04:24.915Z,6.88
2023-03-07T15:08:31.622Z,6.80
2023-03-07T15:12:34.839Z,6.75
2023-03-07T15:16:41.472Z,6.63
2023-03-07T15:20:45.789Z,6.50
2023-03-07T15:24:52.988Z,6.39
2023-03-07T15:29:01.382Z,6.36
2023-03-07T15:33:06.468Z,6.35
2023-03-07T15:37:22.651Z,6.25
2023-03-07T15:41:29.787Z,6.20
2023-03-07T15:45:35.160Z,6.11
2023-03-07T15:49:44.348Z,6.02
2023-03-07T15:53:56.075Z,5.88
2023-03-07T15:58:02.916Z,5.79
2023-03-07T16:02:42.114Z,5.73
2023-03-07T16:06:46.818Z,5.65
2023-03-07T16:10:53.704Z,5.59
2023-03-07T16:15:00.012Z,5.48
2023-03-07T16:19:03.548Z,5.39
2023-03-07T16:23:08.031Z,5.34
2023-03-07T16:27:16.605Z,5.32
2023-03-07T16:31:21.603Z,5.33
2023-03-07T16:35:26.414Z,5.31
2023-03-07T16:39:29.758Z,5.26
2023-03-07T16:43:35.313Z,5.16
2023-03-07T16:47:39.698Z,5.06
2023-03-07T16:51:42.904Z,5.03
2023-03-07T16:55:46.974Z,4.98
2023-03-07T16:59:50.041Z,4.93
2023-03-07T17:03:56.382Z,4.92
2023-03-07T17:08:00.145Z,4.94
2023-03-07T17:12:03.206Z,4.89
2023-03-07T17:16:06.631Z,4.84
2023-03-07T17:20:14.156Z,4.77
2023-03-07T17:24:17.327Z,4.78
2023-03-07T17:28:20.672Z,4.83
2023-03-07T17:32:24.209Z,4.83
2023-03-07T17:36:28.602Z,4.86
2023-03-07T17:40:32.322Z,4.84
2023-03-07T17:44:35.570Z,4.84
2023-03-07T17:48:38.908Z,4.89
2023-03-07T17:52:43.567Z,4.90
2023-03-07T17:56:46.778Z,4.93
2023-03-07T18:00:50.452Z,4.89
2023-03-07T18:04:53.729Z,4.92
2023-03-07T18:08:58.143Z,4.93
2023-03-07T18:13:01.306Z,4.94
2023-03-07T18:17:04.404Z,4.97
2023-03-07T18:21:10.244Z,4.99
2023-03-07T18:25:16.951Z,4.99
2023-03-07T18:29:21.015Z,4.98
2023-03-07T18:33:24.908Z,4.95
2023-03-07T18:37:29.731Z,4.96
2023-03-07T18:41:34.161Z,4.85
2023-03-07T18:45:37.241Z,4.79
2023-03-07T18:49:40.342Z,4.77
2023-03-07T18:53:43.849Z,4.73
2023-03-07T18:57:48.253Z,4.71
2023-03-07T19:01:51.377Z,4.72
2023-03-07T19:05:54.399Z,4.72
2023-03-07T19:09:57.685Z,4.72
2023-03-07T19:14:02.145Z,4.71
2023-03-07T19:18:05.270Z,4.67
2023-03-07T19:22:10.928Z,4.64
2023-03-07T19:26:16.702Z,4.54
2023-03-07T19:30:21.365Z,4.52
2023-03-07T19:34:24.969Z,4.51
2023-03-07T19:38:28.004Z,4.53
2023-03-07T19:42:31.093Z,4.52
2023-03-07T19:46:35.461Z,4.45
2023-03-07T19:50:41.718Z,4.43
2023-03-07T19:54:45.488Z,4.42
2023-03-07T19:58:49.113Z,4.44
2023-03-07T20:02:53.560Z,4.47
2023-03-07T20:06:56.647Z,4.44
2023-03-07T20:11:12.656Z,4.33
2023-03-07T20:15:15.889Z,4.33
2023-03-07T20:19:20.757Z,4.32
2023-03-07T20:23:23.812Z,4.28
2023-03-07T20:27:27.224Z,4.27
2023-03-07T20:31:30.705Z,4.28
2023-03-07T20:35:35.317Z,4.29
2023-03-07T20:39:38.732Z,4.25
2023-03-07T20:43:41.769Z,4.26
2023-03-07T20:47:44.878Z,4.25
2023-03-07T20:51:49.745Z,4.25
2023-03-07T20:55:52.904Z,4.24
2023-03-07T20:59:56.028Z,4.21
2023-03-07T21:04:06.133Z,4.26
2023-03-07T21:08:11.175Z,4.29
2023-03-07T21:12:14.212Z,4.30
2023-03-07T21:16:19.338Z,4.29
2023-03-07T21:20:22.424Z,4.26
2023-03-07T21:24:26.800Z,4.18
2023-03-07T21:28:29.844Z,4.15
2023-03-07T21:32:32.880Z,4.15
2023-03-07T21:36:36.330Z,4.13
2023-03-07T21:40:42.513Z,4.13
2023-03-07T21:44:45.606Z,4.10
2023-03-07T21:48:48.818Z,4.09
2023-03-07T21:52:51.890Z,4.05
2023-03-07T21:56:56.329Z,4.01
2023-03-07T22:00:59.975Z,3.95
2023-03-07T22:05:02.998Z,3.94
2023-03-07T22:09:06.161Z,3.90
2023-03-07T22:13:10.622Z,3.85
2023-03-07T22:17:13.892Z,3.80
2023-03-07T22:21:17.301Z,3.74
2023-03-07T22:25:20.469Z,3.68
2023-03-07T22:29:24.836Z,3.64
2023-03-07T22:33:27.945Z,3.59
2023-03-07T22:37:31.155Z,3.53
2023-03-07T22:41:34.950Z,3.45
2023-03-07T22:45:39.359Z,3.43
2023-03-07T22:49:42.623Z,3.41
2023-03-07T22:53:45.910Z,3.38
2023-03-07T22:57:49.021Z,3.33
2023-03-07T23:01:54.743Z,3.23
2023-03-07T23:06:02.190Z,3.04
2023-03-07T23:10:05.821Z,2.90
2023-03-07T23:14:09.559Z,2.85
2023-03-07T23:18:14.681Z,2.89
2023-03-07T23:22:17.862Z,2.90
2023-03-07T23:26:23.058Z,2.93
2023-03-07T23:30:26.126Z,2.94
2023-03-07T23:34:30.966Z,2.93
2023-03-07T23:38:34.318Z,2.93
2023-03-07T23:42:37.545Z,2.94
2023-03-07T23:46:40.676Z,2.97
2023-03-07T23:50:45.075Z,2.98
2023-03-07T23:54:48.162Z,2.98
2023-03-07T23:58:51.637Z,3.01
